Time,TemperatureF,DewpointF,PressureIn,WindDirection,WindDirectionDegrees,WindSpeedMPH,WindSpeedGustMPH,Humidity,HourlyPrecipIn,Conditions,Clouds,dailyrainin,SoftwareType,DateUTC
2013-08-02 01:32:00,48.1,43.5,29.97,NW,306,0.0,0.0,84,0.00,,,0.00,Wunderground v.1.15,2013-08-02 08:32:00,
2013-08-02 01:34:00,48.0,43.4,29.97,NW,306,0.0,0.0,84,0.00,,,0.00,Wunderground v.1.15,2013-08-02 08:34:00,
2013-08-02 01:40:00,47.9,43.6,29.98,NW,306,0.0,0.0,85,0.00,,,0.00,Wunderground v.1.15,2013-08-02 08:40:00,
2013-08-02 01:42:00,47.9,43.6,29.98,NW,306,0.0,0.0,85,0.00,,,0.00,Wunderground v.1.15,2013-08-02 08:42:00,
2013-08-02 01:44:00,47.8,43.5,29.98,NW,306,0.0,1.0,85,0.00,,,0.00,Wunderground v.1.15,2013-08-02 08:44:00,
2013-08-02 01:49:00,47.8,43.2,29.98,NW,306,0.0,1.0,84,0.00,,,0.00,Wunderground v.1.15,2013-08-02 08:49:00,
2013-08-02 01:56:00,47.6,43.0,29.98,NW,306,0.0,1.0,84,0.00,,,0.00,Wunderground v.1.15,2013-08-02 08:56:00,
2013-08-02 02:02:00,47.4,42.8,29.98,NW,306,1.0,2.0,84,0.00,,,0.00,Wunderground v.1.15,2013-08-02 09:02:00,
2013-08-02 02:08:00,47.4,42.8,29.98,NW,306,2.0,5.0,84,0.00,,,0.00,Wunderground v.1.15,2013-08-02 09:08:00,
2013-08-02 02:13:00,47.5,42.9,29.98,SW,234,4.0,5.0,84,0.00,,,0.00,Wunderground v.1.15,2013-08-02 09:13:00,
2013-08-02 02:20:00,47.8,42.9,29.98,SW,232,3.0,3.0,83,0.00,,,0.00,Wunderground v.1.15,2013-08-02 09:20:00,
2013-08-02 02:26:00,47.9,42.7,29.98,SW,232,2.0,3.0,82,0.00,,,0.00,Wunderground v.1.15,2013-08-02 09:26:00,
2013-08-02 02:32:00,47.8,42.6,29.98,SW,232,1.0,1.0,82,0.00,,,0.00,Wunderground v.1.15,2013-08-02 09:32:00,
2013-08-02 02:38:00,47.6,42.7,29.98,SW,232,0.0,1.0,83,0.00,,,0.00,Wunderground v.1.15,2013-08-02 09:38:00,
2013-08-02 02:43:00,47.3,42.4,29.99,SW,232,0.0,0.0,83,0.00,,,0.00,Wunderground v.1.15,2013-08-02 09:43:00,
2013-08-02 02:50:00,47.1,42.2,29.99,SW,232,0.0,0.0,83,0.00,,,0.00,Wunderground v.1.15,2013-08-02 09:50:00,
2013-08-02 02:56:00,46.7,42.1,29.99,SW,232,0.0,0.0,84,0.00,,,0.00,Wunderground v.1.15,2013-08-02 09:56:00,
2013-08-02 03:02:00,46.4,41.8,29.99,SW,232,0.0,0.0,84,0.00,,,0.00,Wunderground v.1.15,2013-08-02 10:02:00,
2013-08-02 03:08:00,46.1,41.8,29.98,SW,232,0.0,1.0,85,0.00,,,0.00,Wunderground v.1.15,2013-08-02 10:08:00,
2013-08-02 03:14:00,46.0,41.7,29.98,SW,232,0.0,0.0,85,0.00,,,0.00,Wunderground v.1.15,2013-08-02 10:14:00,
2013-08-02 03:20:00,46.0,41.7,29.98,SW,232,0.0,0.0,85,0.00,,,0.00,Wunderground v.1.15,2013-08-02 10:20:00,
2013-08-02 03:26:00,46.0,42.0,29.98,SW,232,0.0,0.0,86,0.00,,,0.00,Wunderground v.1.15,2013-08-02 10:26:00,
2013-08-02 03:32:00,46.0,41.7,29.98,SW,232,0.0,0.0,85,0.00,,,0.00,Wunderground v.1.15,2013-08-02 10:32:00,
2013-08-02 03:38:00,46.0,41.7,29.98,SW,232,0.0,0.0,85,0.00,,,0.00,Wunderground v.1.15,2013-08-02 10:38:00,
2013-08-02 03:44:00,46.1,41.8,29.98,SW,232,0.0,0.0,85,0.00,,,0.00,Wunderground v.1.15,2013-08-02 10:44:00,
2013-08-02 03:50:00,46.1,41.8,29.98,SW,232,0.0,1.0,85,0.00,,,0.00,Wunderground v.1.15,2013-08-02 10:50:00,
2013-08-02 03:56:00,45.9,41.6,29.98,SW,232,0.0,1.0,85,0.00,,,0.00,Wunderground v.1.15,2013-08-02 10:56:00,
2013-08-02 04:02:00,45.7,41.4,29.99,SW,232,0.0,0.0,85,0.00,,,0.00,Wunderground v.1.15,2013-08-02 11:02:00,
2013-08-02 04:08:00,45.4,41.2,29.99,SW,232,0.0,0.0,85,0.00,,,0.00,Wunderground v.1.15,2013-08-02 11:08:00,
2013-08-02 04:14:00,45.2,41.3,29.99,SW,232,0.0,0.0,86,0.00,,,0.00,Wunderground v.1.15,2013-08-02 11:14:00,
2013-08-02 04:20:00,45.0,41.1,29.99,SW,232,0.0,0.0,86,0.00,,,0.00,Wunderground v.1.15,2013-08-02 11:20:00,
2013-08-02 04:26:00,44.8,41.2,29.99,SW,232,0.0,0.0,87,0.00,,,0.00,Wunderground v.1.15,2013-08-02 11:26:00,
2013-08-02 04:32:00,44.9,41.3,29.99,SW,232,0.0,0.0,87,0.00,,,0.00,Wunderground v.1.15,2013-08-02 11:32:00,
2013-08-02 04:37:00,44.9,41.0,29.99,SW,232,0.0,0.0,86,0.00,,,0.00,Wunderground v.1.15,2013-08-02 11:37:00,
2013-08-02 04:44:00,44.9,41.3,29.98,SW,232,0.0,0.0,87,0.00,,,0.00,Wunderground v.1.15,2013-08-02 11:44:00,
2013-08-02 04:50:00,44.9,41.0,29.99,SW,232,0.0,0.0,86,0.00,,,0.00,Wunderground v.1.15,2013-08-02 11:50:00,
2013-08-02 04:55:00,44.9,41.0,29.99,SW,232,0.0,0.0,86,0.00,,,0.00,Wunderground v.1.15,2013-08-02 11:55:00,
2013-08-02 05:02:00,44.9,41.3,29.99,SW,232,0.0,0.0,87,0.00,,,0.00,Wunderground v.1.15,2013-08-02 12:02:00,
2013-08-02 05:08:00,44.7,41.1,29.99,SW,232,0.0,0.0,87,0.00,,,0.00,Wunderground v.1.15,2013-08-02 12:08:00,
2013-08-02 05:14:00,44.7,41.4,29.99,SW,232,0.0,0.0,88,0.00,,,0.00,Wunderground v.1.15,2013-08-02 12:14:00,
2013-08-02 05:20:00,44.6,41.3,29.99,SW,232,0.0,0.0,88,0.00,,,0.00,Wunderground v.1.15,2013-08-02 12:20:00,
2013-08-02 05:26:00,44.3,41.0,29.99,SW,232,0.0,0.0,88,0.00,,,0.00,Wunderground v.1.15,2013-08-02 12:26:00,
2013-08-02 05:32:00,44.0,40.7,29.99,SW,232,0.0,0.0,88,0.00,,,0.00,Wunderground v.1.15,2013-08-02 12:32:00,
2013-08-02 05:38:00,43.7,40.7,29.99,SW,232,0.0,0.0,89,0.00,,,0.00,Wunderground v.1.15,2013-08-02 12:38:00,
2013-08-02 05:44:00,43.8,40.8,29.99,SW,232,0.0,0.0,89,0.00,,,0.00,Wunderground v.1.15,2013-08-02 12:44:00,
2013-08-02 05:50:00,43.9,41.2,29.99,SW,232,0.0,0.0,90,0.00,,,0.00,Wunderground v.1.15,2013-08-02 12:50:00,
2013-08-02 05:56:00,44.0,41.0,29.99,SW,232,0.0,0.0,89,0.00,,,0.00,Wunderground v.1.15,2013-08-02 12:56:00,
2013-08-02 06:02:00,44.1,41.1,29.99,SW,232,0.0,0.0,89,0.00,,,0.00,Wunderground v.1.15,2013-08-02 13:02:00,
2013-08-02 06:08:00,44.1,41.1,30.00,SW,232,0.0,0.0,89,0.00,,,0.00,Wunderground v.1.15,2013-08-02 13:08:00,
2013-08-02 06:14:00,44.3,41.3,30.00,SW,232,0.0,0.0,89,0.00,,,0.00,Wunderground v.1.15,2013-08-02 13:14:00,
2013-08-02 06:19:00,44.4,41.1,30.00,SW,232,0.0,0.0,88,0.00,,,0.00,Wunderground v.1.15,2013-08-02 13:19:00,
2013-08-02 06:26:00,44.5,41.2,30.00,SW,232,0.0,0.0,88,0.00,,,0.00,Wunderground v.1.15,2013-08-02 13:26:00,
2013-08-02 06:32:00,44.5,41.2,30.00,SW,232,0.0,0.0,88,0.00,,,0.00,Wunderground v.1.15,2013-08-02 13:32:00,
2013-08-02 06:38:00,44.7,41.4,30.00,SW,232,0.0,0.0,88,0.00,,,0.00,Wunderground v.1.15,2013-08-02 13:38:00,
2013-08-02 06:43:00,45.1,41.8,30.00,SW,232,0.0,0.0,88,0.00,,,0.00,Wunderground v.1.15,2013-08-02 13:43:00,
2013-08-02 06:50:00,45.6,42.3,30.00,SW,232,0.0,0.0,88,0.00,,,0.00,Wunderground v.1.15,2013-08-02 13:50:00,
2013-08-02 06:56:00,46.1,42.4,30.01,SW,232,0.0,0.0,87,0.00,,,0.00,Wunderground v.1.15,2013-08-02 13:56:00,
2013-08-02 07:02:00,46.7,43.0,30.01,SW,232,0.0,0.0,87,0.00,,,0.00,Wunderground v.1.15,2013-08-02 14:02:00,
2013-08-02 07:07:00,47.6,43.3,30.01,SW,232,0.0,0.0,85,0.00,,,0.00,Wunderground v.1.15,2013-08-02 14:07:00,
2013-08-02 07:14:00,48.5,43.9,30.01,SW,232,0.0,0.0,84,0.00,,,0.00,Wunderground v.1.15,2013-08-02 14:14:00,
2013-08-02 07:20:00,49.2,44.3,30.01,SW,232,0.0,0.0,83,0.00,,,0.00,Wunderground v.1.15,2013-08-02 14:20:00,
2013-08-02 07:26:00,49.6,44.6,30.01,SW,232,0.0,0.0,83,0.00,,,0.00,Wunderground v.1.15,2013-08-02 14:26:00,
2013-08-02 07:32:00,50.4,45.1,30.02,SW,232,0.0,0.0,82,0.00,,,0.00,Wunderground v.1.15,2013-08-02 14:32:00,
2013-08-02 07:38:00,50.3,45.0,30.02,SW,232,0.0,0.0,82,0.00,,,0.00,Wunderground v.1.15,2013-08-02 14:38:00,
2013-08-02 07:44:00,50.7,45.1,30.02,SW,232,0.0,0.0,81,0.00,,,0.00,Wunderground v.1.15,2013-08-02 14:44:00,
2013-08-02 07:49:00,51.5,46.2,30.02,SW,232,0.0,0.0,82,0.00,,,0.00,Wunderground v.1.15,2013-08-02 14:49:00,
2013-08-02 07:56:00,52.6,46.3,30.02,SW,232,0.0,1.0,79,0.00,,,0.00,Wunderground v.1.15,2013-08-02 14:56:00,
2013-08-02 08:02:00,53.5,46.5,30.02,SW,232,0.0,0.0,77,0.00,,,0.00,Wunderground v.1.15,2013-08-02 15:02:00,
2013-08-02 08:08:00,54.0,46.6,30.02,SW,232,1.0,2.0,76,0.00,,,0.00,Wunderground v.1.15,2013-08-02 15:08:00,
2013-08-02 08:14:00,54.7,46.9,30.02,SW,232,1.0,1.0,75,0.00,,,0.00,Wunderground v.1.15,2013-08-02 15:14:00,
2013-08-02 08:20:00,55.2,47.1,30.02,SW,232,0.0,4.0,74,0.00,,,0.00,Wunderground v.1.15,2013-08-02 15:20:00,
2013-08-02 08:26:00,55.7,47.5,30.02,SW,232,1.0,4.0,74,0.00,,,0.00,Wunderground v.1.15,2013-08-02 15:26:00,
2013-08-02 08:31:00,56.1,47.6,30.02,SW,232,1.0,1.0,73,0.00,,,0.00,Wunderground v.1.15,2013-08-02 15:31:00,
2013-08-02 08:38:00,56.7,46.6,30.02,SW,232,1.0,3.0,69,0.00,,,0.00,Wunderground v.1.15,2013-08-02 15:38:00,
2013-08-02 08:44:00,57.0,46.5,30.02,SW,232,1.0,3.0,68,0.00,,,0.00,Wunderground v.1.15,2013-08-02 15:44:00,
2013-08-02 08:49:00,57.5,47.0,30.02,SSW,193,1.0,2.0,68,0.00,,,0.00,Wunderground v.1.15,2013-08-02 15:49:00,
2013-08-02 08:56:00,58.0,47.1,30.02,SSW,193,1.0,2.0,67,0.00,,,0.00,Wunderground v.1.15,2013-08-02 15:56:00,
2013-08-02 09:02:00,58.6,46.5,30.02,SSW,193,0.0,0.0,64,0.00,,,0.00,Wunderground v.1.15,2013-08-02 16:02:00,
2013-08-02 09:08:00,58.9,46.3,30.03,SSW,193,1.0,1.0,63,0.00,,,0.00,Wunderground v.1.15,2013-08-02 16:08:00,
2013-08-02 09:14:00,59.4,46.4,30.03,SSW,193,0.0,1.0,62,0.00,,,0.00,Wunderground v.1.15,2013-08-02 16:14:00,
2013-08-02 09:19:00,59.7,46.2,30.03,SSW,193,0.0,1.0,61,0.00,,,0.00,Wunderground v.1.15,2013-08-02 16:19:00,
2013-08-02 09:26:00,60.5,46.5,30.02,SSW,193,0.0,1.0,60,0.00,,,0.00,Wunderground v.1.15,2013-08-02 16:26:00,
2013-08-02 09:32:00,60.9,46.5,30.02,South,184,1.0,2.0,59,0.00,,,0.00,Wunderground v.1.15,2013-08-02 16:32:00,
2013-08-02 09:38:00,61.5,47.0,30.02,South,181,1.0,2.0,59,0.00,,,0.00,Wunderground v.1.15,2013-08-02 16:38:00,
2013-08-02 09:44:00,62.4,46.5,30.02,South,178,0.0,1.0,56,0.00,,,0.00,Wunderground v.1.15,2013-08-02 16:44:00,
2013-08-02 09:50:00,62.7,46.3,30.02,South,178,0.0,0.0,55,0.00,,,0.00,Wunderground v.1.15,2013-08-02 16:50:00,
2013-08-02 09:56:00,62.9,47.0,30.02,South,180,0.0,1.0,56,0.00,,,0.00,Wunderground v.1.15,2013-08-02 16:56:00,
2013-08-02 10:02:00,63.0,46.6,30.02,West,262,1.0,2.0,55,0.00,,,0.00,Wunderground v.1.15,2013-08-02 17:02:00,
2013-08-02 10:08:00,62.3,46.4,30.02,West,271,2.0,3.0,56,0.00,,,0.00,Wunderground v.1.15,2013-08-02 17:08:00,
2013-08-02 10:14:00,62.0,46.6,30.02,West,271,1.0,3.0,57,0.00,,,0.00,Wunderground v.1.15,2013-08-02 17:14:00,
2013-08-02 10:20:00,61.9,46.0,30.02,West,271,1.0,1.0,56,0.00,,,0.00,Wunderground v.1.15,2013-08-02 17:20:00,
2013-08-02 10:25:00,62.7,47.2,30.02,West,271,0.0,1.0,57,0.00,,,0.00,Wunderground v.1.15,2013-08-02 17:25:00,
2013-08-02 10:32:00,64.1,46.6,30.02,West,271,0.0,0.0,53,0.00,,,0.00,Wunderground v.1.15,2013-08-02 17:32:00,
2013-08-02 10:38:00,65.3,47.2,30.01,West,271,0.0,0.0,52,0.00,,,0.00,Wunderground v.1.15,2013-08-02 17:38:00,
2013-08-02 10:44:00,66.0,46.8,30.01,West,271,0.0,1.0,50,0.00,,,0.00,Wunderground v.1.15,2013-08-02 17:44:00,
2013-08-02 10:50:00,65.6,46.5,30.01,West,271,1.0,1.0,50,0.00,,,0.00,Wunderground v.1.15,2013-08-02 17:50:00,
2013-08-02 10:56:00,65.4,47.3,30.01,West,271,0.0,3.0,52,0.00,,,0.00,Wunderground v.1.15,2013-08-02 17:56:00,
2013-08-02 11:02:00,66.1,46.9,30.01,West,271,1.0,2.0,50,0.00,,,0.00,Wunderground v.1.15,2013-08-02 18:02:00,
2013-08-02 11:08:00,65.7,46.5,30.00,West,271,1.0,3.0,50,0.00,,,0.00,Wunderground v.1.15,2013-08-02 18:08:00,
2013-08-02 11:14:00,65.4,46.8,30.00,West,263,2.0,6.0,51,0.00,,,0.00,Wunderground v.1.15,2013-08-02 18:14:00,
2013-08-02 11:20:00,64.9,46.3,30.00,West,263,2.0,2.0,51,0.00,,,0.00,Wunderground v.1.15,2013-08-02 18:20:00,
2013-08-02 11:26:00,64.9,46.3,30.00,West,269,2.0,4.0,51,0.00,,,0.00,Wunderground v.1.15,2013-08-02 18:26:00,
2013-08-02 11:32:00,65.4,47.8,30.00,West,269,2.0,2.0,53,0.00,,,0.00,Wunderground v.1.15,2013-08-02 18:32:00,
2013-08-02 11:38:00,66.9,48.2,30.00,West,269,1.0,2.0,51,0.00,,,0.00,Wunderground v.1.15,2013-08-02 18:38:00,
2013-08-02 11:44:00,67.9,48.0,29.99,West,269,0.0,1.0,49,0.00,,,0.00,Wunderground v.1.15,2013-08-02 18:44:00,
2013-08-02 11:50:00,68.6,47.6,29.99,ESE,105,1.0,5.0,47,0.00,,,0.00,Wunderground v.1.15,2013-08-02 18:50:00,
2013-08-02 11:55:00,67.5,47.1,29.99,East,99,3.0,5.0,48,0.00,,,0.00,Wunderground v.1.15,2013-08-02 18:55:00,
2013-08-02 12:02:00,68.0,48.1,29.99,ESE,113,1.0,4.0,49,0.00,,,0.00,Wunderground v.1.15,2013-08-02 19:02:00,
2013-08-02 12:08:00,68.1,47.7,29.99,ENE,77,2.0,4.0,48,0.00,,,0.00,Wunderground v.1.15,2013-08-02 19:08:00,
2013-08-02 12:13:00,67.4,47.6,29.99,ESE,113,4.0,4.0,49,0.00,,,0.00,Wunderground v.1.15,2013-08-02 19:13:00,
2013-08-02 12:20:00,67.0,47.7,29.98,ESE,122,4.0,4.0,50,0.00,,,0.00,Wunderground v.1.15,2013-08-02 19:20:00,
2013-08-02 12:26:00,68.0,47.6,29.98,East,96,2.0,14.0,48,0.00,,,0.00,Wunderground v.1.15,2013-08-02 19:26:00,
2013-08-02 12:32:00,67.7,48.9,29.98,East,93,4.0,4.0,51,0.00,,,0.00,Wunderground v.1.15,2013-08-02 19:32:00,
2013-08-02 12:38:00,68.1,47.1,29.98,East,93,2.0,4.0,47,0.00,,,0.00,Wunderground v.1.15,2013-08-02 19:38:00,
2013-08-02 12:44:00,69.0,48.5,29.98,East,93,1.0,2.0,48,0.00,,,0.00,Wunderground v.1.15,2013-08-02 19:44:00,
2013-08-02 12:50:00,70.1,49.5,29.97,East,93,1.0,1.0,48,0.00,,,0.00,Wunderground v.1.15,2013-08-02 19:50:00,
2013-08-02 12:56:00,70.7,47.7,29.97,East,87,1.0,7.0,44,0.00,,,0.00,Wunderground v.1.15,2013-08-02 19:56:00,
2013-08-02 13:02:00,69.9,48.7,29.97,East,89,3.0,3.0,47,0.00,,,0.00,Wunderground v.1.15,2013-08-02 20:02:00,
2013-08-02 13:08:00,70.1,47.8,29.97,SE,124,2.0,3.0,45,0.00,,,0.00,Wunderground v.1.15,2013-08-02 20:08:00,
2013-08-02 13:14:00,70.6,47.0,29.97,East,90,2.0,5.0,43,0.00,,,0.00,Wunderground v.1.15,2013-08-02 20:14:00,
2013-08-02 13:20:00,71.8,46.2,29.97,ENE,77,2.0,2.0,40,0.00,,,0.00,Wunderground v.1.15,2013-08-02 20:20:00,
2013-08-02 13:26:00,73.0,43.7,29.97,ENE,69,2.0,2.0,35,0.00,,,0.00,Wunderground v.1.15,2013-08-02 20:26:00,
2013-08-02 13:32:00,73.5,45.6,29.97,NE,40,3.0,6.0,37,0.00,,,0.00,Wunderground v.1.15,2013-08-02 20:32:00,
2013-08-02 13:38:00,73.7,46.5,29.97,NNE,17,3.0,6.0,38,0.00,,,0.00,Wunderground v.1.15,2013-08-02 20:38:00,
2013-08-02 13:44:00,75.5,43.6,29.97,NNE,17,1.0,3.0,32,0.00,,,0.00,Wunderground v.1.15,2013-08-02 20:44:00,
2013-08-02 13:50:00,75.6,43.7,29.96,NNE,21,2.0,5.0,32,0.00,,,0.00,Wunderground v.1.15,2013-08-02 20:50:00,
2013-08-02 13:56:00,75.0,43.9,29.96,NNE,21,3.0,5.0,33,0.00,,,0.00,Wunderground v.1.15,2013-08-02 20:56:00,
2013-08-02 14:02:00,75.1,44.8,29.96,NNE,21,2.0,5.0,34,0.00,,,0.00,Wunderground v.1.15,2013-08-02 21:02:00,
2013-08-02 14:08:00,74.4,45.7,29.96,NNE,21,2.0,5.0,36,0.00,,,0.00,Wunderground v.1.15,2013-08-02 21:08:00,
2013-08-02 14:14:00,73.8,45.9,29.96,NNE,21,2.0,5.0,37,0.00,,,0.00,Wunderground v.1.15,2013-08-02 21:14:00,
2013-08-02 14:19:00,73.2,46.1,29.96,NNE,21,2.0,4.0,38,0.00,,,0.00,Wunderground v.1.15,2013-08-02 21:19:00,
2013-08-02 14:26:00,73.4,45.5,29.95,ENE,71,3.0,5.0,37,0.00,,,0.00,Wunderground v.1.15,2013-08-02 21:26:00,
2013-08-02 14:32:00,73.8,45.9,29.95,ENE,57,4.0,8.0,37,0.00,,,0.00,Wunderground v.1.15,2013-08-02 21:32:00,
2013-08-02 14:38:00,73.2,43.1,29.95,East,97,5.0,9.0,34,0.00,,,0.00,Wunderground v.1.15,2013-08-02 21:38:00,
2013-08-02 14:44:00,72.6,44.1,29.95,East,94,6.0,10.0,36,0.00,,,0.00,Wunderground v.1.15,2013-08-02 21:44:00,
2013-08-02 14:50:00,73.9,43.8,29.95,ENE,66,4.0,4.0,34,0.00,,,0.00,Wunderground v.1.15,2013-08-02 21:50:00,
2013-08-02 14:56:00,74.2,44.0,29.94,ENE,69,3.0,9.0,34,0.00,,,0.00,Wunderground v.1.15,2013-08-02 21:56:00,
2013-08-02 15:02:00,75.0,47.0,29.94,ENE,62,3.0,8.0,37,0.00,,,0.00,Wunderground v.1.15,2013-08-02 22:02:00,
2013-08-02 15:08:00,75.8,44.6,29.94,ENE,73,4.0,8.0,33,0.00,,,0.00,Wunderground v.1.15,2013-08-02 22:08:00,
2013-08-02 15:14:00,75.6,42.8,29.93,NNW,331,6.0,6.0,31,0.00,,,0.00,Wunderground v.1.15,2013-08-02 22:14:00,
2013-08-02 15:20:00,76.7,42.0,29.93,NNW,344,3.0,3.0,29,0.00,,,0.00,Wunderground v.1.15,2013-08-02 22:20:00,
2013-08-02 15:26:00,76.5,41.9,29.93,NE,51,2.0,5.0,29,0.00,,,0.00,Wunderground v.1.15,2013-08-02 22:26:00,
2013-08-02 15:32:00,77.1,40.5,29.93,NE,56,3.0,4.0,27,0.00,,,0.00,Wunderground v.1.15,2013-08-02 22:32:00,
2013-08-02 15:38:00,77.4,40.8,29.93,ENE,67,3.0,5.0,27,0.00,,,0.00,Wunderground v.1.15,2013-08-02 22:38:00,
2013-08-02 15:44:00,77.5,39.9,29.93,ENE,67,3.0,4.0,26,0.00,,,0.00,Wunderground v.1.15,2013-08-02 22:44:00,
2013-08-02 15:50:00,77.0,39.5,29.93,ENE,66,2.0,2.0,26,0.00,,,0.00,Wunderground v.1.15,2013-08-02 22:50:00,
2013-08-02 15:56:00,76.7,40.2,29.93,NE,39,3.0,5.0,27,0.00,,,0.00,Wunderground v.1.15,2013-08-02 22:56:00,
2013-08-02 16:02:00,77.4,39.8,29.93,NE,39,3.0,3.0,26,0.00,,,0.00,Wunderground v.1.15,2013-08-02 23:02:00,
2013-08-02 16:08:00,77.2,41.6,29.93,ENE,66,2.0,5.0,28,0.00,,,0.00,Wunderground v.1.15,2013-08-02 23:08:00,
2013-08-02 16:14:00,77.6,41.0,29.93,ENE,66,3.0,3.0,27,0.00,,,0.00,Wunderground v.1.15,2013-08-02 23:14:00,
2013-08-02 16:20:00,77.3,41.6,29.92,NNE,28,4.0,4.0,28,0.00,,,0.00,Wunderground v.1.15,2013-08-02 23:20:00,
2013-08-02 16:25:00,77.0,40.4,29.92,NE,44,3.0,4.0,27,0.00,,,0.00,Wunderground v.1.15,2013-08-02 23:25:00,
2013-08-02 16:32:00,77.0,42.3,29.92,NE,44,2.0,2.0,29,0.00,,,0.00,Wunderground v.1.15,2013-08-02 23:32:00,
2013-08-02 16:38:00,76.9,43.1,29.92,ENE,78,4.0,10.0,30,0.00,,,0.00,Wunderground v.1.15,2013-08-02 23:38:00,
2013-08-02 16:44:00,76.8,44.7,29.92,NNE,16,4.0,5.0,32,0.00,,,0.00,Wunderground v.1.15,2013-08-02 23:44:00,
2013-08-02 16:50:00,76.8,43.9,29.92,NNE,21,3.0,3.0,31,0.00,,,0.00,Wunderground v.1.15,2013-08-02 23:50:00,
2013-08-02 16:56:00,76.6,44.5,29.93,North,10,3.0,5.0,32,0.00,,,0.00,Wunderground v.1.15,2013-08-02 23:56:00,
2013-08-02 17:02:00,76.4,43.5,29.93,North,5,3.0,3.0,31,0.00,,,0.00,Wunderground v.1.15,2013-08-03 00:02:00,
2013-08-02 17:08:00,75.4,43.5,29.93,North,9,2.0,5.0,32,0.00,,,0.00,Wunderground v.1.15,2013-08-03 00:08:00,
2013-08-02 17:14:00,74.7,43.7,29.93,North,9,2.0,3.0,33,0.00,,,0.00,Wunderground v.1.15,2013-08-03 00:14:00,
2013-08-02 17:20:00,74.0,43.1,29.93,North,9,1.0,1.0,33,0.00,,,0.00,Wunderground v.1.15,2013-08-03 00:20:00,
2013-08-02 17:26:00,73.1,46.0,29.93,WNW,290,3.0,8.0,38,0.00,,,0.00,Wunderground v.1.15,2013-08-03 00:26:00,
2013-08-02 17:32:00,71.8,44.8,29.93,WNW,293,5.0,5.0,38,0.00,,,0.00,Wunderground v.1.15,2013-08-03 00:32:00,
2013-08-02 17:37:00,71.0,45.5,29.93,WNW,292,4.0,5.0,40,0.00,,,0.00,Wunderground v.1.15,2013-08-03 00:37:00,
2013-08-02 17:44:00,70.1,45.3,29.94,WNW,284,4.0,4.0,41,0.00,,,0.00,Wunderground v.1.15,2013-08-03 00:44:00,
2013-08-02 17:50:00,69.6,44.8,29.94,WNW,294,5.0,5.0,41,0.00,,,0.00,Wunderground v.1.15,2013-08-03 00:50:00,
2013-08-02 17:55:00,69.5,44.8,29.94,WNW,294,6.0,6.0,41,0.00,,,0.00,Wunderground v.1.15,2013-08-03 00:55:00,
2013-08-02 18:02:00,69.3,44.6,29.94,NNW,334,6.0,11.0,41,0.00,,,0.00,Wunderground v.1.15,2013-08-03 01:02:00,
2013-08-02 18:08:00,68.7,44.7,29.94,NW,323,7.0,15.0,42,0.00,,,0.00,Wunderground v.1.15,2013-08-03 01:08:00,
2013-08-02 18:14:00,68.4,44.4,29.94,NNW,341,6.0,8.0,42,0.00,,,0.00,Wunderground v.1.15,2013-08-03 01:14:00,
2013-08-02 18:20:00,68.3,44.3,29.95,NW,317,7.0,7.0,42,0.00,,,0.00,Wunderground v.1.15,2013-08-03 01:20:00,
2013-08-02 18:26:00,67.9,44.6,29.95,NW,306,8.0,11.0,43,0.00,,,0.00,Wunderground v.1.15,2013-08-03 01:26:00,
2013-08-02 18:32:00,67.5,43.6,29.95,NW,322,7.0,7.0,42,0.00,,,0.00,Wunderground v.1.15,2013-08-03 01:32:00,
2013-08-02 18:38:00,67.4,44.1,29.95,NW,322,6.0,9.0,43,0.00,,,0.00,Wunderground v.1.15,2013-08-03 01:38:00,
2013-08-02 18:44:00,67.7,42.5,29.95,NNW,329,6.0,8.0,40,0.00,,,0.00,Wunderground v.1.15,2013-08-03 01:44:00,
2013-08-02 18:50:00,68.0,42.8,29.95,NW,323,6.0,7.0,40,0.00,,,0.00,Wunderground v.1.15,2013-08-03 01:50:00,
2013-08-02 18:56:00,68.0,42.8,29.94,NW,324,5.0,7.0,40,0.00,,,0.00,Wunderground v.1.15,2013-08-03 01:56:00,
2013-08-02 19:02:00,68.1,42.9,29.93,NW,308,3.0,4.0,40,0.00,,,0.00,Wunderground v.1.15,2013-08-03 02:02:00,
2013-08-02 19:08:00,68.8,41.5,29.93,NW,318,3.0,4.0,37,0.00,,,0.00,Wunderground v.1.15,2013-08-03 02:08:00,
2013-08-02 19:13:00,69.8,43.0,29.93,NW,304,4.0,5.0,38,0.00,,,0.00,Wunderground v.1.15,2013-08-03 02:13:00,
2013-08-02 19:20:00,70.8,41.8,29.93,NW,306,3.0,3.0,35,0.00,,,0.00,Wunderground v.1.15,2013-08-03 02:20:00,
2013-08-02 19:26:00,71.3,39.9,29.93,North,5,4.0,8.0,32,0.00,,,0.00,Wunderground v.1.15,2013-08-03 02:26:00,
2013-08-02 19:32:00,70.8,40.3,29.93,NW,326,7.0,8.0,33,0.00,,,0.00,Wunderground v.1.15,2013-08-03 02:32:00,
2013-08-02 19:37:00,70.0,40.3,29.94,NW,325,7.0,8.0,34,0.00,,,0.00,Wunderground v.1.15,2013-08-03 02:37:00,
2013-08-02 19:44:00,69.0,40.9,29.94,NNW,338,5.0,8.0,36,0.00,,,0.00,Wunderground v.1.15,2013-08-03 02:44:00,
2013-08-02 19:50:00,68.4,41.1,29.94,NW,304,4.0,4.0,37,0.00,,,0.00,Wunderground v.1.15,2013-08-03 02:50:00,
2013-08-02 19:56:00,68.1,41.5,29.94,NW,304,2.0,4.0,38,0.00,,,0.00,Wunderground v.1.15,2013-08-03 02:56:00,
2013-08-02 20:02:00,67.9,42.0,29.94,NW,304,0.0,0.0,39,0.00,,,0.00,Wunderground v.1.15,2013-08-03 03:02:00,
2013-08-02 20:08:00,67.6,42.4,29.94,NW,304,0.0,2.0,40,0.00,,,0.00,Wunderground v.1.15,2013-08-03 03:08:00,
2013-08-02 20:14:00,67.4,42.2,29.94,NW,304,0.0,3.0,40,0.00,,,0.00,Wunderground v.1.15,2013-08-03 03:14:00,
2013-08-02 20:19:00,67.2,41.4,29.95,NW,304,1.0,3.0,39,0.00,,,0.00,Wunderground v.1.15,2013-08-03 03:19:00,
2013-08-02 20:26:00,66.7,42.2,29.95,NW,304,1.0,1.0,41,0.00,,,0.00,Wunderground v.1.15,2013-08-03 03:26:00,
2013-08-02 20:32:00,66.1,42.3,29.95,NW,304,0.0,0.0,42,0.00,,,0.00,Wunderground v.1.15,2013-08-03 03:32:00,
2013-08-02 20:38:00,65.5,42.4,29.96,NW,304,0.0,3.0,43,0.00,,,0.00,Wunderground v.1.15,2013-08-03 03:38:00,
2013-08-02 20:44:00,65.0,43.1,29.96,NW,304,1.0,1.0,45,0.00,,,0.00,Wunderground v.1.15,2013-08-03 03:44:00,
2013-08-02 20:50:00,64.4,42.6,29.96,North,355,1.0,2.0,45,0.00,,,0.00,Wunderground v.1.15,2013-08-03 03:50:00,
2013-08-02 20:55:00,64.4,43.7,29.96,North,5,1.0,1.0,47,0.00,,,0.00,Wunderground v.1.15,2013-08-03 03:55:00,
2013-08-02 21:02:00,64.5,44.4,29.97,North,5,1.0,1.0,48,0.00,,,0.00,Wunderground v.1.15,2013-08-03 04:02:00,
2013-08-02 21:06:00,64.5,44.4,29.97,North,5,1.0,1.0,48,0.00,,,0.00,Wunderground v.1.15,2013-08-03 04:06:00,
2013-08-02 21:07:00,64.4,44.8,29.97,North,5,1.0,1.0,49,0.00,,,0.00,Wunderground v.1.15,2013-08-03 04:07:00,
2013-08-02 21:14:00,64.0,45.0,29.98,North,5,1.0,1.0,50,0.00,,,0.00,Wunderground v.1.15,2013-08-03 04:14:00,
2013-08-02 21:16:00,63.7,44.7,29.98,North,5,1.0,1.0,50,0.00,,,0.00,Wunderground v.1.15,2013-08-03 04:16:00,
2013-08-02 21:22:00,63.3,43.8,29.98,North,5,0.0,0.0,49,0.00,,,0.00,Wunderground v.1.15,2013-08-03 04:22:00,
2013-08-02 21:27:00,63.0,44.6,29.97,North,5,0.0,0.0,51,0.00,,,0.00,Wunderground v.1.15,2013-08-03 04:27:00,
2013-08-02 21:34:00,62.6,45.2,29.97,North,5,0.0,0.0,53,0.00,,,0.00,Wunderground v.1.15,2013-08-03 04:34:00,
2013-08-02 21:40:00,62.4,46.0,29.98,North,5,0.0,0.0,55,0.00,,,0.00,Wunderground v.1.15,2013-08-03 04:40:00,
2013-08-02 21:45:00,62.2,45.8,29.98,North,5,0.0,2.0,55,0.00,,,0.00,Wunderground v.1.15,2013-08-03 04:45:00,
2013-08-02 21:52:00,62.0,46.1,29.98,North,5,0.0,0.0,56,0.00,,,0.00,Wunderground v.1.15,2013-08-03 04:52:00,
2013-08-02 21:58:00,61.5,46.1,29.98,North,5,0.0,0.0,57,0.00,,,0.00,Wunderground v.1.15,2013-08-03 04:58:00,
2013-08-02 22:04:00,61.2,46.3,29.98,North,5,0.0,0.0,58,0.00,,,0.00,Wunderground v.1.15,2013-08-03 05:04:00,
2013-08-02 22:10:00,61.0,46.6,29.98,North,5,0.0,0.0,59,0.00,,,0.00,Wunderground v.1.15,2013-08-03 05:10:00,
2013-08-02 22:16:00,60.7,45.8,29.98,North,5,0.0,0.0,58,0.00,,,0.00,Wunderground v.1.15,2013-08-03 05:16:00,
2013-08-02 22:22:00,60.5,47.0,29.98,North,5,0.0,0.0,61,0.00,,,0.00,Wunderground v.1.15,2013-08-03 05:22:00,
2013-08-02 22:28:00,60.0,46.1,29.98,North,5,0.0,1.0,60,0.00,,,0.00,Wunderground v.1.15,2013-08-03 05:28:00,
2013-08-02 22:34:00,59.1,46.1,29.98,North,5,0.0,0.0,62,0.00,,,0.00,Wunderground v.1.15,2013-08-03 05:34:00,
2013-08-02 22:40:00,58.4,45.8,29.98,North,5,0.0,0.0,63,0.00,,,0.00,Wunderground v.1.15,2013-08-03 05:40:00,
2013-08-02 22:46:00,58.2,45.2,29.98,North,5,0.0,0.0,62,0.00,,,0.00,Wunderground v.1.15,2013-08-03 05:46:00,
2013-08-02 22:52:00,58.1,46.4,29.98,North,5,0.0,0.0,65,0.00,,,0.00,Wunderground v.1.15,2013-08-03 05:52:00,
2013-08-02 22:58:00,57.9,46.6,29.98,North,5,0.0,0.0,66,0.00,,,0.00,Wunderground v.1.15,2013-08-03 05:58:00,
2013-08-02 23:04:00,57.3,46.0,29.98,North,5,0.0,0.0,66,0.00,,,0.00,Wunderground v.1.15,2013-08-03 06:04:00,
2013-08-02 23:10:00,56.6,45.4,29.98,North,5,0.0,0.0,66,0.00,,,0.00,Wunderground v.1.15,2013-08-03 06:10:00,
2013-08-02 23:16:00,56.3,45.9,29.98,North,5,0.0,1.0,68,0.00,,,0.00,Wunderground v.1.15,2013-08-03 06:16:00,
2013-08-02 23:21:00,56.4,46.0,29.98,North,5,0.0,0.0,68,0.00,,,0.00,Wunderground v.1.15,2013-08-03 06:21:00,
2013-08-02 23:28:00,56.2,45.8,29.98,North,5,0.0,0.0,68,0.00,,,0.00,Wunderground v.1.15,2013-08-03 06:28:00,
2013-08-02 23:34:00,55.7,45.7,29.98,North,5,0.0,0.0,69,0.00,,,0.00,Wunderground v.1.15,2013-08-03 06:34:00,
2013-08-02 23:40:00,55.4,45.8,29.99,North,5,0.0,0.0,70,0.00,,,0.00,Wunderground v.1.15,2013-08-03 06:40:00,
2013-08-02 23:46:00,55.1,45.5,29.99,North,5,0.0,1.0,70,0.00,,,0.00,Wunderground v.1.15,2013-08-03 06:46:00,
2013-08-02 23:52:00,54.7,45.5,29.99,North,5,0.0,0.0,71,0.00,,,0.00,Wunderground v.1.15,2013-08-03 06:52:00,
2013-08-02 23:58:00,54.6,45.8,29.99,North,5,0.0,0.0,72,0.00,,,0.00,Wunderground v.1.15,2013-08-03 06:58:00,